Friday, July 20, 2018, 4:41 AM EDT
Back to Local

KFME, Fort Meade / Tipton

Location: Laurel, MD, United States Lat: 39.083
Local Time: 4:41 AM EDT ( 8:41 GMT) Lon: -76.767
Time Zone: US/Eastern Elev: 150 ft

Show me the last for .
Show Decoded

2018-07-20 04:15 METAR KFME 200815Z AUTO 00000KT 10SM CLR 15/15 A3013 RMK AO1 =
2018-07-20 03:57 METAR KFME 200757Z AUTO 00000KT 10SM CLR 15/15 A3013 RMK AO1 =
2018-07-20 03:36 METAR KFME 200736Z AUTO 00000KT 10SM CLR 15/15 A3013 RMK AO1 =
2018-07-20 03:15 METAR KFME 200715Z AUTO 00000KT 10SM CLR 15/15 A3013 RMK AO1 =
2018-07-20 02:57 METAR KFME 200657Z AUTO 00000KT 10SM CLR 16/15 A3013 RMK AO1 =
2018-07-20 02:36 METAR KFME 200636Z AUTO 00000KT 10SM CLR 16/15 A3013 RMK AO1 =
2018-07-20 02:15 METAR KFME 200615Z AUTO 00000KT 10SM CLR 16/15 A3013 RMK AO1 =
2018-07-20 01:57 METAR KFME 200557Z AUTO 00000KT 10SM CLR 16/15 A3013 RMK AO1 =
2018-07-20 01:36 METAR KFME 200536Z AUTO 00000KT 10SM CLR 16/15 A3013 RMK AO1 =
2018-07-20 01:15 METAR KFME 200515Z AUTO 00000KT 10SM CLR 16/15 A3013 RMK AO1 =
2018-07-20 00:57 METAR KFME 200457Z AUTO 00000KT 10SM CLR 16/16 A3013 RMK AO1 =
2018-07-20 00:36 METAR KFME 200436Z AUTO 00000KT 10SM CLR 17/16 A3013 RMK AO1 =
2018-07-20 00:15 METAR KFME 200415Z AUTO 00000KT 10SM CLR 17/16 A3013 RMK AO1 =
2018-07-19 23:57 METAR KFME 200357Z AUTO 00000KT 10SM CLR 17/16 A3012 RMK AO1 =
2018-07-19 23:36 METAR KFME 200336Z AUTO 00000KT 10SM CLR 17/16 A3012 RMK AO1 =
2018-07-19 23:15 METAR KFME 200315Z AUTO 00000KT 10SM CLR 17/16 A3012 RMK AO1 =
2018-07-19 22:57 METAR KFME 200257Z AUTO 00000KT 10SM CLR 17/16 A3011 RMK AO1 =
2018-07-19 22:36 METAR KFME 200236Z AUTO 00000KT 10SM CLR 18/16 A3011 RMK AO1 =
2018-07-19 22:15 METAR KFME 200215Z AUTO 00000KT 10SM CLR 18/16 A3011 RMK AO1 =
2018-07-19 21:57 METAR KFME 200157Z AUTO 00000KT 10SM CLR 18/16 A3011 RMK AO1 =
2018-07-19 21:36 METAR KFME 200136Z AUTO 00000KT 10SM CLR 19/16 A3010 RMK AO1 =
2018-07-19 21:15 METAR KFME 200115Z AUTO 00000KT 10SM CLR 20/16 A3010 RMK AO1 =
2018-07-19 20:57 METAR KFME 200057Z AUTO 00000KT 10SM CLR 20/16 A3009 RMK AO1 =
2018-07-19 20:36 METAR KFME 200036Z AUTO 00000KT 10SM CLR 21/16 A3008 RMK AO1 =
2018-07-19 20:15 METAR KFME 200015Z AUTO 14003KT 10SM CLR 22/16 A3008 RMK AO1 =
2018-07-19 19:57 METAR KFME 192357Z AUTO 13004KT 10SM CLR 23/15 A3008 RMK AO1 =
2018-07-19 19:36 METAR KFME 192336Z AUTO 14004KT 10SM CLR 25/15 A3008 RMK AO1 =
2018-07-19 19:15 METAR KFME 192315Z AUTO 13005KT 10SM CLR 26/13 A3008 RMK AO1 =
2018-07-19 18:57 METAR KFME 192257Z AUTO 14007KT 10SM CLR 26/13 A3008 RMK AO1 =
2018-07-19 18:36 METAR KFME 192236Z AUTO 14007KT 10SM CLR 27/13 A3008 RMK AO1 =
2018-07-19 18:15 METAR KFME 192215Z AUTO 15007KT 10SM CLR 27/13 A3008 RMK AO1 =
2018-07-19 17:57 METAR KFME 192157Z AUTO 14010KT 10SM CLR 27/13 A3007 RMK AO1 =
2018-07-19 17:36 METAR KFME 192136Z AUTO 13007KT 10SM CLR 28/15 A3008 RMK AO1 =
2018-07-19 17:15 METAR KFME 192115Z AUTO 14010KT 10SM CLR 28/14 A3008 RMK AO1 =
2018-07-19 16:57 METAR KFME 192057Z AUTO 15004KT 10SM CLR 28/13 A3008 RMK AO1 =
2018-07-19 16:36 METAR KFME 192036Z AUTO 17004KT 10SM CLR 29/12 A3008 RMK AO1 =
2018-07-19 16:15 METAR KFME 192015Z AUTO 14005KT 10SM CLR 30/12 A3008 RMK AO1 =
2018-07-19 15:57 METAR KFME 191957Z AUTO 00000KT 10SM CLR 28/11 A3008 RMK AO1 =
2018-07-19 15:36 METAR KFME 191936Z AUTO 34004KT 10SM CLR 30/12 A3009 RMK AO1 =
2018-07-19 15:15 METAR KFME 191915Z AUTO 20005KT 10SM CLR 30/13 A3009 RMK AO1 =
2018-07-19 14:57 METAR KFME 191857Z AUTO 00000KT 10SM CLR 29/13 A3010 RMK AO1 =
2018-07-19 14:36 METAR KFME 191836Z AUTO 29005KT 10SM CLR 29/12 A3010 RMK AO1 =
2018-07-19 14:15 METAR KFME 191815Z AUTO 29005KT 10SM CLR 28/12 A3011 RMK AO1 =
2018-07-19 13:57 METAR KFME 191757Z AUTO 00000KT 10SM CLR 27/11 A3011 RMK AO1 =
2018-07-19 13:36 METAR KFME 191736Z AUTO 00000KT 10SM CLR 28/12 A3012 RMK AO1 =
2018-07-19 13:15 METAR KFME 191715Z AUTO 15003KT 10SM CLR 28/12 A3012 RMK AO1 =
2018-07-19 12:57 METAR KFME 191657Z AUTO 00000KT 10SM CLR 28/12 A3013 RMK AO1 =
2018-07-19 12:36 METAR KFME 191636Z AUTO 00000KT 10SM CLR 28/13 A3013 RMK AO1 =
2018-07-19 12:15 METAR KFME 191615Z AUTO 14004KT 10SM CLR 27/12 A3013 RMK AO1 =
2018-07-19 11:57 METAR KFME 191557Z AUTO 00000KT 10SM CLR 26/12 A3013 RMK AO1 =
2018-07-19 11:36 METAR KFME 191536Z AUTO 07004KT 10SM CLR 26/12 A3013 RMK AO1 =
2018-07-19 11:15 METAR KFME 191515Z AUTO 10005KT 10SM CLR 26/12 A3014 RMK AO1 =
2018-07-19 10:57 METAR KFME 191457Z AUTO 08005KT 10SM CLR 26/12 A3014 RMK AO1 =
2018-07-19 10:36 METAR KFME 191436Z AUTO 10008KT 10SM CLR 26/11 A3014 RMK AO1 =
2018-07-19 10:15 METAR KFME 191415Z AUTO 07008KT 10SM CLR 26/11 A3013 RMK AO1 =
2018-07-19 09:57 METAR KFME 191357Z AUTO 07003KT 10SM CLR 25/11 A3013 RMK AO1 =
2018-07-19 09:36 METAR KFME 191336Z AUTO 08007KT 10SM CLR 25/11 A3013 RMK AO1 =
2018-07-19 09:15 METAR KFME 191315Z AUTO 05004KT 10SM CLR 24/11 A3013 RMK AO1 =
2018-07-19 08:57 METAR KFME 191257Z AUTO 02005KT 10SM CLR 23/11 A3013 RMK AO1 =
2018-07-19 08:36 METAR KFME 191236Z AUTO 05003KT 10SM CLR 22/12 A3013 RMK AO1 =
2018-07-19 08:15 METAR KFME 191215Z AUTO 05005KT 10SM CLR 21/14 A3012 RMK AO1 =
2018-07-19 07:57 METAR KFME 191157Z AUTO 36003KT 10SM CLR 21/15 A3011 RMK AO1 =
2018-07-19 07:36 METAR KFME 191136Z AUTO 00000KT 10SM CLR 18/16 A3011 RMK AO1 =
2018-07-19 07:15 METAR KFME 191115Z AUTO 00000KT 10SM CLR 16/16 A3010 RMK AO1 =
2018-07-19 06:57 METAR KFME 191057Z AUTO 00000KT 10SM SCT080 16/15 A3009 RMK AO1 =
2018-07-19 06:36 METAR KFME 191036Z AUTO 00000KT 10SM BKN080 15/15 A3009 RMK AO1 =
2018-07-19 06:15 METAR KFME 191015Z AUTO 00000KT 10SM BKN080 15/15 A3008 RMK AO1 =
2018-07-19 05:57 METAR KFME 190957Z AUTO 00000KT 10SM BKN080 15/15 A3008 RMK AO1 =
2018-07-19 05:36 METAR KFME 190936Z AUTO 00000KT 10SM SCT080 15/15 A3008 RMK AO1 =
2018-07-19 05:15 METAR KFME 190915Z AUTO 00000KT 10SM SCT080 15/15 A3008 RMK AO1 =
2018-07-19 04:57 METAR KFME 190857Z AUTO 00000KT 10SM CLR 15/15 A3007 RMK AO1 =

Support USWX by starting your Amazon purchase here.